KHRO

Boone County Airport

Airport
ICAO code
KHRO
IATA Code
HRO
Summary
ICAO Region
NAM
ICAO Territory
Location

Harrison, Arkansas

Serving
Harrison
Elevation
1365 ft
Coordinates
36° 15' 41" N , 93° 9' 17" W
KCC
Metar
KHRO 181553Z AUTO 19010G17KT 10SM BKN033 24/16 A2993 RMK AO2 SLP122 T02440161

Description

Regional airport serving Harrison, Arkansas and the surrounding Boone county. It is located 3 nm northwest of the city's business district.

Airport map

Aerial View

SKYbrary Partners:

Safety knowledge contributed by: